Time;durP1;ratioP1;P1;durP2;ratioP2;P2;SDS_P1;SDS_P2;PMS_P1;PMS_P2;Temp;Humidity;BMP_temperature;BMP_pressure;BME280_temperature;BME280_humidity;BME280_pressure;Samples;Min_cycle;Max_cycle;Signal;HPM_P1;HPM_P2
2022/01/14 00:02:10;;;;;;;92.80;34.80;;;8.70;99.90;;;;;;4783934;29;20124;-83
2022/01/14 00:04:37;;;;;;;95.40;35.53;;;7.10;99.90;;;;;;4787156;29;20082;-84
2022/01/14 00:07:03;;;;;;;94.60;34.70;;;8.10;99.90;;;;;;4791996;29;20492;-84
2022/01/14 00:09:30;;;;;;;99.72;34.70;;;7.80;99.90;;;;;;4790410;29;20435;-84
2022/01/14 00:11:58;;;;;;;92.20;36.10;;;8.80;99.90;;;;;;4768307;30;20534;-83
2022/01/14 00:14:38;;;;;;;92.90;33.95;;;9.50;99.90;;;;;;4809572;29;20473;-84
2022/01/14 00:17:09;;;;;;;107.28;35.63;;;7.70;99.90;;;;;;4790084;29;20058;-85
2022/01/14 00:19:37;;;;;;;90.90;34.08;;;8.80;99.90;;;;;;4797682;29;20122;-83
2022/01/14 00:22:10;;;;;;;78.87;32.23;;;7.70;99.90;;;;;;4792343;29;20059;-84
2022/01/14 00:35:20;;;;;;;82.60;33.10;;;7.70;99.90;;;;;;4791197;29;20406;-84
2022/01/14 00:37:46;;;;;;;87.80;34.72;;;7.90;99.90;;;;;;4789806;29;20160;-86
2022/01/14 00:40:12;;;;;;;89.70;33.97;;;9.00;99.90;;;;;;4791198;29;20047;-84
2022/01/14 00:42:37;;;;;;;83.63;32.50;;;7.60;99.90;;;;;;4786255;29;20134;-84
2022/01/14 00:45:07;;;;;;;84.05;33.10;;;6.30;99.90;;;;;;4785846;29;20263;-83
2022/01/14 00:47:37;;;;;;;77.90;30.75;;;7.60;99.90;;;;;;4787361;29;20047;-84
2022/01/14 00:50:12;;;;;;;81.25;32.92;;;7.70;99.90;;;;;;4797793;29;20043;-84
2022/01/14 00:52:40;;;;;;;77.10;30.67;;;7.70;99.90;;;;;;4792061;29;20062;-87
2022/01/14 00:55:07;;;;;;;;;;;7.60;99.90;;;;;;4800965;29;20919;-83
2022/01/14 01:00:21;;;;;;;96.72;34.05;;;8.90;99.90;;;;;;4795609;29;20201;-82
2022/01/14 01:02:47;;;;;;;85.70;33.80;;;7.30;99.90;;;;;;4786043;29;20442;-88
2022/01/14 01:05:13;;;;;;;89.93;33.42;;;7.50;99.90;;;;;;4789452;29;20096;-82
2022/01/14 01:07:42;;;;;;;86.68;34.35;;;8.90;99.90;;;;;;4792222;29;20115;-83
2022/01/14 01:10:10;;;;;;;85.07;33.70;;;7.60;99.90;;;;;;4792568;29;20066;-83
2022/01/14 01:12:55;;;;;;;93.38;34.70;;;7.60;99.90;;;;;;4806237;29;20051;-83
2022/01/14 01:15:21;;;;;;;85.43;35.70;;;7.40;99.90;;;;;;4806441;29;20054;-83
2022/01/14 01:17:48;;;;;;;92.43;35.08;;;9.70;99.90;;;;;;4812357;29;20057;-89
2022/01/14 01:20:18;;;;;;;88.55;35.60;;;7.50;99.90;;;;;;4804286;29;20047;-83
2022/01/14 01:22:49;;;;;;;99.70;37.88;;;8.70;99.90;;;;;;4803817;29;20264;-83
2022/01/14 01:25:19;;;;;;;93.55;34.72;;;7.60;99.90;;;;;;4803660;29;20058;-83
2022/01/14 01:27:47;;;;;;;90.95;34.70;;;8.70;99.90;;;;;;4798767;29;20058;-83
2022/01/14 01:30:16;;;;;;;103.60;36.85;;;7.90;99.90;;;;;;4805461;29;20512;-83
2022/01/14 01:32:48;;;;;;;86.40;34.17;;;7.50;99.90;;;;;;4804853;29;20558;-85
2022/01/14 01:35:15;;;;;;;107.07;35.88;;;8.50;99.90;;;;;;4775652;29;20078;-82
2022/01/14 01:37:41;;;;;;;81.32;35.35;;;10.00;99.90;;;;;;4812190;29;20569;-82
2022/01/14 01:40:08;;;;;;;84.68;34.63;;;8.80;99.90;;;;;;4804136;29;20142;-83
2022/01/14 01:42:34;;;;;;;98.38;35.63;;;7.20;99.90;;;;;;4803261;29;20061;-82
2022/01/14 01:45:00;;;;;;;77.53;33.75;;;7.60;99.90;;;;;;4802721;29;20058;-82
2022/01/14 01:47:27;;;;;;;91.00;34.13;;;7.50;99.90;;;;;;4775837;29;20066;-82
2022/01/14 01:49:53;;;;;;;98.88;35.08;;;;;;;;;;4803782;29;20093;-88
2022/01/14 01:52:19;;;;;;;82.35;34.60;;;7.50;99.90;;;;;;4804244;29;20547;-82
2022/01/14 01:54:45;;;;;;;74.25;32.83;;;8.00;99.90;;;;;;4806047;29;20239;-82
2022/01/14 01:57:11;;;;;;;86.03;34.63;;;7.50;99.90;;;;;;4811621;29;20239;-82
2022/01/14 01:59:37;;;;;;;85.25;34.33;;;9.10;99.90;;;;;;4805900;29;20077;-82
2022/01/14 02:02:03;;;;;;;86.95;33.15;;;7.50;99.90;;;;;;4806476;29;20498;-82
2022/01/14 02:04:30;;;;;;;87.07;34.80;;;7.60;99.90;;;;;;4801416;29;20816;-83
2022/01/14 02:06:56;;;;;;;90.22;33.65;;;9.40;99.90;;;;;;4803513;29;20727;-88
2022/01/14 02:09:23;;;;;;;90.80;32.38;;;7.80;99.90;;;;;;4782238;29;20062;-82
2022/01/14 02:11:49;;;;;;;91.05;33.90;;;7.60;99.90;;;;;;4808838;29;20113;-83
2022/01/14 02:14:53;;;;;;;91.60;34.33;;;8.70;99.90;;;;;;4804514;29;20269;-83
2022/01/14 02:17:31;;;;;;;77.50;33.50;;;9.80;99.90;;;;;;4802819;29;20856;-83
2022/01/14 02:22:55;;;;;;;83.28;33.83;;;7.60;99.90;;;;;;4803331;29;20137;-84
2022/01/14 02:25:28;;;;;;;97.82;35.35;;;7.40;99.90;;;;;;4790419;29;20164;-84
2022/01/14 02:28:00;;;;;;;96.10;35.45;;;7.50;99.90;;;;;;4793857;29;20069;-83
2022/01/14 02:30:27;;;;;;;101.80;34.70;;;7.60;99.90;;;;;;4787814;29;20065;-83
2022/01/14 02:32:53;;;;;;;100.83;36.03;;;;;;;;;;4800678;29;20050;-84
2022/01/14 02:35:19;;;;;;;81.90;34.17;;;7.60;99.90;;;;;;4803110;29;20055;-83
2022/01/14 02:37:45;;;;;;;80.10;33.25;;;9.30;99.90;;;;;;4804360;29;20350;-84
2022/01/14 02:40:11;;;;;;;102.47;37.50;;;9.90;99.90;;;;;;4780089;29;20051;-83
2022/01/14 02:42:37;;;;;;;85.10;35.47;;;7.70;99.90;;;;;;4804330;29;20159;-83
2022/01/14 02:45:06;;;;;;;100.53;35.40;;;7.60;99.90;;;;;;4801697;29;20555;-86
2022/01/14 02:47:33;;;;;;;103.05;35.17;;;7.60;99.90;;;;;;4801891;29;20139;-83
2022/01/14 02:49:59;;;;;;;85.88;34.88;;;8.90;99.90;;;;;;4785876;29;20556;-89
2022/01/14 02:52:40;;;;;;;96.85;34.00;;;7.90;99.90;;;;;;4803414;29;20065;-83
2022/01/14 02:55:15;;;;;;;96.97;37.03;;;9.10;99.90;;;;;;4802002;29;20066;-84
2022/01/14 02:57:43;;;;;;;97.70;35.47;;;7.60;99.90;;;;;;4816098;29;20190;-84
2022/01/14 03:00:10;;;;;;;98.65;37.20;;;6.00;99.90;;;;;;4810728;29;20080;-85
2022/01/14 03:02:36;;;;;;;94.05;35.10;;;7.60;99.90;;;;;;4805889;29;20055;-84
2022/01/14 03:05:03;;;;;;;110.72;35.92;;;8.20;99.90;;;;;;4790434;29;20054;-90
2022/01/14 03:07:29;;;;;;;100.07;34.67;;;7.60;99.90;;;;;;4773417;29;20043;-84
2022/01/14 03:09:54;;;;;;;100.20;35.83;;;7.60;99.90;;;;;;4786908;29;20061;-84
2022/01/14 03:12:21;;;;;;;91.43;35.20;;;9.00;99.90;;;;;;4801789;29;20051;-84
2022/01/14 03:14:47;;;;;;;111.40;36.25;;;;;;;;;;4803285;29;20462;-86
2022/01/14 03:17:13;;;;;;;100.28;35.45;;;8.00;99.90;;;;;;4802424;29;20085;-84
2022/01/14 03:19:39;;;;;;;99.10;36.38;;;;;;;;;;4803279;29;20082;-84
2022/01/14 03:22:19;;;;;;;101.03;36.20;;;7.70;99.90;;;;;;4802538;29;20125;-88
2022/01/14 03:27:12;;;;;;;99.07;38.72;;;8.50;99.90;;;;;;4788702;29;20058;-84
2022/01/14 03:29:37;;;;;;;94.30;37.03;;;7.60;99.90;;;;;;4815239;29;20051;-88
2022/01/14 03:32:04;;;;;;;104.65;39.70;;;7.70;99.90;;;;;;4788563;29;20069;-90
2022/01/14 03:34:31;;;;;;;95.45;37.45;;;7.70;99.90;;;;;;4806057;29;20047;-84
2022/01/14 03:36:56;;;;;;;102.55;37.35;;;7.70;99.90;;;;;;4808207;29;20487;-84
2022/01/14 03:39:23;;;;;;;92.93;38.08;;;8.30;99.90;;;;;;4774565;29;20152;-84
2022/01/14 03:41:49;;;;;;;80.28;35.97;;;8.20;99.90;;;;;;4790607;29;20413;-84
2022/01/14 03:44:16;;;;;;;99.55;38.25;;;7.70;99.90;;;;;;4803678;29;20054;-83
2022/01/14 03:46:43;;;;;;;88.85;36.67;;;9.20;99.90;;;;;;4809421;29;20097;-84
2022/01/14 03:49:08;;;;;;;85.20;37.13;;;8.80;99.90;;;;;;4804324;29;20055;-89
2022/01/14 03:51:34;;;;;;;90.70;36.63;;;8.10;99.90;;;;;;4805806;29;20104;-84
2022/01/14 03:54:00;;;;;;;89.82;38.00;;;9.00;99.90;;;;;;4814432;29;20054;-84
2022/01/14 03:56:26;;;;;;;98.05;39.05;;;8.00;99.90;;;;;;4802522;29;20489;-84
2022/01/14 03:58:53;;;;;;;92.45;37.83;;;7.90;99.90;;;;;;4789433;29;20097;-89
2022/01/14 04:01:22;;;;;;;82.43;36.17;;;9.60;99.90;;;;;;4797034;29;20366;-84
2022/01/14 04:03:49;;;;;;;74.13;35.22;;;7.00;99.90;;;;;;4804736;29;20057;-84
2022/01/14 04:06:16;;;;;;;94.00;37.63;;;7.70;99.90;;;;;;4799199;29;20090;-83
2022/01/14 04:08:42;;;;;;;89.35;36.13;;;8.70;99.90;;;;;;4789446;29;20103;-84
2022/01/14 04:11:10;;;;;;;85.75;36.97;;;9.10;99.90;;;;;;4789260;29;20102;-83
2022/01/14 04:13:51;;;;;;;;;;;7.90;99.90;;;;;;4793160;29;20055;-84
2022/01/14 04:16:19;;;;;;;81.70;35.75;;;9.80;99.90;;;;;;4805027;29;19925;-85
2022/01/14 04:18:45;;;;;;;78.72;36.53;;;7.80;99.90;;;;;;4805853;29;20126;-83
2022/01/14 04:21:11;;;;;;;81.13;35.80;;;8.00;99.90;;;;;;4803699;29;20075;-89
2022/01/14 04:23:37;;;;;;;89.55;38.15;;;7.60;99.90;;;;;;4810150;29;20503;-83
2022/01/14 04:26:03;;;;;;;76.55;35.90;;;7.80;99.90;;;;;;4817123;29;20133;-85
2022/01/14 04:28:34;;;;;;;71.57;35.80;;;7.70;99.90;;;;;;4804654;29;20505;-83
2022/01/14 04:31:00;;;;;;;77.70;36.40;;;;;;;;;;4806650;29;20079;-84
2022/01/14 04:33:28;;;;;;;94.70;37.72;;;7.80;99.90;;;;;;4788531;29;20180;-84
2022/01/14 04:35:55;;;;;;;79.55;36.08;;;8.40;99.90;;;;;;4802032;29;20131;-84
2022/01/14 04:38:22;;;;;;;85.78;37.67;;;9.40;99.90;;;;;;4774203;29;20137;-83
2022/01/14 04:40:48;;;;;;;83.18;35.25;;;;;;;;;;4803844;29;20145;-83
2022/01/14 04:43:16;;;;;;;88.15;37.53;;;7.70;99.90;;;;;;4804244;29;20051;-90
2022/01/14 04:45:55;;;;;;;80.97;36.17;;;7.90;99.90;;;;;;4787804;29;20112;-84
2022/01/14 04:48:21;;;;;;;84.20;36.85;;;7.80;99.90;;;;;;4800390;29;20050;-84
2022/01/14 04:50:49;;;;;;;77.80;36.22;;;9.70;99.90;;;;;;4804465;29;20113;-83
2022/01/14 04:53:15;;;;;;;84.13;38.40;;;7.80;99.90;;;;;;4772852;29;20066;-89
2022/01/14 04:55:41;;;;;;;82.90;36.95;;;7.90;99.90;;;;;;4773034;29;20055;-84
2022/01/14 04:58:07;;;;;;;88.82;37.90;;;7.70;99.90;;;;;;4786892;29;20567;-84
2022/01/14 05:00:32;;;;;;;88.30;38.42;;;6.80;99.90;;;;;;4786089;29;20059;-84
2022/01/14 05:02:58;;;;;;;88.60;38.67;;;8.80;99.90;;;;;;4804119;29;20164;-83
2022/01/14 05:05:28;;;;;;;89.50;37.67;;;8.20;99.90;;;;;;4798467;29;20054;-82
2022/01/14 05:07:53;;;;;;;84.78;37.78;;;7.60;99.90;;;;;;4803036;29;20047;-84
2022/01/14 05:10:36;;;;;;;88.10;38.85;;;8.20;99.90;;;;;;4803694;29;20058;-89
2022/01/14 05:13:02;;;;;;;92.05;39.00;;;7.30;99.90;;;;;;4803950;29;20137;-83
2022/01/14 05:15:29;;;;;;;91.82;39.17;;;7.10;99.90;;;;;;4790157;29;20054;-83
2022/01/14 05:17:55;;;;;;;88.65;39.05;;;9.00;99.90;;;;;;4804644;29;20062;-83
2022/01/14 05:20:21;;;;;;;83.85;40.72;;;7.80;99.90;;;;;;4809647;29;20042;-89
2022/01/14 05:22:47;;;;;;;95.88;39.20;;;9.10;99.90;;;;;;4808697;29;20054;-84
2022/01/14 05:25:14;;;;;;;75.20;35.72;;;6.20;99.90;;;;;;4818902;29;20082;-84
2022/01/14 05:27:42;;;;;;;92.95;39.10;;;5.40;99.90;;;;;;4780859;29;20658;-84
2022/01/14 05:30:09;;;;;;;85.05;40.70;;;9.70;99.90;;;;;;4806493;29;20050;-85
2022/01/14 05:32:35;;;;;;;82.32;40.05;;;7.50;99.90;;;;;;4802224;29;20043;-83
2022/01/14 05:35:04;;;;;;;97.38;38.80;;;6.90;99.90;;;;;;4804183;29;20058;-82
2022/01/14 05:37:30;;;;;;;91.35;38.33;;;7.10;99.90;;;;;;4802949;29;20165;-83
2022/01/14 05:39:57;;;;;;;87.00;39.35;;;7.50;99.90;;;;;;4787191;29;20058;-83
2022/01/14 05:42:23;;;;;;;83.68;37.67;;;7.40;99.90;;;;;;4802706;29;20065;-89
2022/01/14 05:44:49;;;;;;;80.10;39.15;;;7.40;99.90;;;;;;4804907;29;20192;-83
2022/01/14 05:47:15;;;;;;;89.13;39.25;;;7.90;99.90;;;;;;4786140;29;20209;-82
2022/01/14 05:49:40;;;;;;;82.03;38.35;;;9.60;99.90;;;;;;4773013;29;20058;-82
2022/01/14 05:52:06;;;;;;;83.10;36.80;;;7.90;99.90;;;;;;4811948;29;20042;-84
2022/01/14 05:54:32;;;;;;;75.10;37.35;;;7.00;99.90;;;;;;4801015;29;20058;-85
2022/01/14 05:56:57;;;;;;;80.00;37.85;;;7.40;99.90;;;;;;4802690;29;20564;-82
2022/01/14 05:59:23;;;;;;;93.53;37.75;;;9.20;99.90;;;;;;4784622;29;20054;-89
2022/01/14 06:01:49;;;;;;;86.13;38.95;;;7.20;99.90;;;;;;4801199;29;20051;-82
2022/01/14 06:04:15;;;;;;;78.28;37.22;;;6.90;99.90;;;;;;4802419;29;20504;-83
2022/01/14 06:06:41;;;;;;;80.45;37.88;;;7.60;99.90;;;;;;4786959;29;20046;-83
2022/01/14 06:09:06;;;;;;;76.82;36.60;;;7.40;99.90;;;;;;4802882;29;20053;-82
2022/01/14 06:11:32;;;;;;;79.40;37.83;;;8.00;99.90;;;;;;4802230;29;20098;-83
2022/01/14 06:13:58;;;;;;;75.22;37.33;;;8.00;99.90;;;;;;4803895;29;20411;-85
2022/01/14 06:16:24;;;;;;;88.28;36.72;;;;;;;;;;4803364;29;20115;-83
2022/01/14 06:18:50;;;;;;;75.43;36.67;;;7.40;99.90;;;;;;4807785;29;20061;-83
2022/01/14 06:21:15;;;;;;;80.45;37.80;;;8.40;99.90;;;;;;4787242;29;20046;-83
2022/01/14 06:23:41;;;;;;;75.13;37.45;;;7.90;99.90;;;;;;4802722;29;20083;-83
2022/01/14 06:26:08;;;;;;;69.28;35.05;;;7.80;99.90;;;;;;4801996;29;20141;-83
2022/01/14 06:28:33;;;;;;;74.32;37.10;;;7.40;99.90;;;;;;4803025;29;20051;-83
2022/01/14 06:30:59;;;;;;;76.43;37.60;;;9.30;99.90;;;;;;4807595;29;20121;-83
2022/01/14 06:33:25;;;;;;;74.60;37.25;;;7.40;99.90;;;;;;4811748;29;20467;-83
2022/01/14 06:35:51;;;;;;;83.88;37.17;;;7.50;99.90;;;;;;4810744;29;20069;-83
2022/01/14 06:38:18;;;;;;;69.20;35.75;;;6.50;99.90;;;;;;4791294;29;20130;-84
2022/01/14 06:40:46;;;;;;;83.95;38.78;;;7.50;99.90;;;;;;4801924;29;20062;-83
2022/01/14 06:43:13;;;;;;;79.93;37.13;;;9.50;99.90;;;;;;4804189;29;20062;-83
2022/01/14 06:45:38;;;;;;;73.20;35.65;;;7.20;99.90;;;;;;4797451;29;20058;-83
2022/01/14 06:48:04;;;;;;;87.05;38.08;;;9.50;99.90;;;;;;4793274;29;20050;-83
2022/01/14 06:50:31;;;;;;;69.05;33.97;;;;;;;;;;4803091;29;20106;-91
2022/01/14 06:52:56;;;;;;;79.43;36.53;;;7.50;99.90;;;;;;4803733;29;20071;-83
2022/01/14 06:55:22;;;;;;;74.05;36.25;;;7.40;99.90;;;;;;4787785;29;20059;-84
2022/01/14 06:57:48;;;;;;;79.32;36.20;;;7.60;99.90;;;;;;4783814;30;20070;-84
2022/01/14 07:00:16;;;;;;;75.53;37.38;;;7.40;99.90;;;;;;4800364;29;20373;-83
2022/01/14 07:02:42;;;;;;;69.90;36.10;;;7.50;99.90;;;;;;4802978;29;20058;-83
2022/01/14 07:05:09;;;;;;;66.20;35.45;;;8.50;99.90;;;;;;4804153;29;20488;-84
2022/01/14 07:07:35;;;;;;;95.32;35.92;;;;;;;;;;4806896;29;20055;-84
2022/01/14 07:10:01;;;;;;;69.70;33.85;;;7.40;99.90;;;;;;4790382;29;20088;-84
2022/01/14 07:12:33;;;;;;;67.95;35.00;;;8.30;99.90;;;;;;4806563;29;20063;-84
2022/01/14 07:15:00;;;;;;;65.43;33.42;;;7.70;99.90;;;;;;4807420;29;20184;-84
2022/01/14 07:17:27;;;;;;;72.75;34.63;;;9.40;99.90;;;;;;4806787;29;20050;-83
2022/01/14 07:19:55;;;;;;;67.18;34.00;;;7.70;99.90;;;;;;4790425;29;20542;-83
2022/01/14 07:22:22;;;;;;;66.28;34.58;;;7.50;99.90;;;;;;4776436;29;20061;-84
2022/01/14 07:24:48;;;;;;;75.60;34.97;;;6.70;99.90;;;;;;4790058;29;20090;-85
2022/01/14 07:27:14;;;;;;;73.65;33.88;;;8.00;99.90;;;;;;4790004;29;20086;-83
2022/01/14 07:29:40;;;;;;;73.20;34.58;;;7.60;99.90;;;;;;4813501;29;20050;-84
2022/01/14 07:32:07;;;;;;;65.40;34.83;;;9.50;99.90;;;;;;4791786;29;20056;-84
2022/01/14 07:34:33;;;;;;;74.75;34.58;;;7.50;99.90;;;;;;4789904;29;20095;-84
2022/01/14 07:36:59;;;;;;;64.93;33.22;;;9.50;99.90;;;;;;4817152;29;20129;-83
2022/01/14 07:39:25;;;;;;;61.97;32.42;;;7.50;99.90;;;;;;4809547;29;20126;-83
2022/01/14 07:41:51;;;;;;;66.10;34.08;;;7.70;99.90;;;;;;4804439;29;20050;-86
2022/01/14 07:44:17;;;;;;;66.90;33.63;;;7.50;99.90;;;;;;4792572;29;20046;-84
2022/01/14 07:46:43;;;;;;;66.97;34.20;;;;;;;;;;4812283;29;20065;-85
2022/01/14 07:49:10;;;;;;;65.10;32.63;;;7.60;99.90;;;;;;4806317;29;20086;-84
2022/01/14 07:51:36;;;;;;;74.25;33.03;;;9.50;99.90;;;;;;4808886;29;20043;-83
2022/01/14 07:54:04;;;;;;;72.45;33.08;;;8.40;99.90;;;;;;4776894;29;20107;-84
2022/01/14 07:56:32;;;;;;;82.05;31.30;;;7.60;99.90;;;;;;4805806;29;20156;-84
2022/01/14 07:58:58;;;;;;;71.78;33.08;;;8.40;99.90;;;;;;4789477;29;20649;-84
2022/01/14 08:01:24;;;;;;;73.75;31.45;;;7.40;99.90;;;;;;4808604;29;20051;-83
2022/01/14 08:03:49;;;;;;;64.07;31.27;;;9.70;99.90;;;;;;4789384;29;20054;-83
2022/01/14 08:06:15;;;;;;;67.50;31.52;;;10.10;99.90;;;;;;4788423;29;20051;-84
2022/01/14 08:08:41;;;;;;;60.33;31.20;;;8.00;99.90;;;;;;4805516;29;20054;-89
2022/01/14 08:11:07;;;;;;;61.10;29.40;;;7.40;99.90;;;;;;4804255;29;20059;-83
2022/01/14 08:13:33;;;;;;;65.45;29.88;;;9.20;99.90;;;;;;4790156;29;20144;-83
2022/01/14 08:16:00;;;;;;;64.38;30.85;;;;;;;;;;4804675;29;20051;-83
2022/01/14 08:18:25;;;;;;;64.43;30.02;;;7.70;99.90;;;;;;4789054;29;20525;-83
2022/01/14 08:20:52;;;;;;;63.25;30.75;;;7.70;99.90;;;;;;4804761;29;20054;-83
2022/01/14 08:23:19;;;;;;;61.15;30.02;;;7.70;99.90;;;;;;4818697;29;20085;-83
2022/01/14 08:25:45;;;;;;;56.63;28.63;;;;;;;;;;4809056;29;20059;-86
2022/01/14 08:28:11;;;;;;;63.00;29.17;;;7.80;99.90;;;;;;4805569;29;20070;-84
2022/01/14 08:30:36;;;;;;;57.85;28.13;;;7.70;99.90;;;;;;4805319;29;20047;-84
2022/01/14 08:33:02;;;;;;;56.85;27.60;;;8.70;99.90;;;;;;4812185;29;20050;-84
2022/01/14 08:35:29;;;;;;;59.42;27.17;;;9.80;99.90;;;;;;4797825;29;20046;-83
2022/01/14 08:37:55;;;;;;;55.88;25.38;;;7.80;99.90;;;;;;4822827;29;20065;-84
2022/01/14 08:40:21;;;;;;;47.53;25.98;;;8.50;99.90;;;;;;4822820;29;20507;-83
2022/01/14 08:42:52;;;;;;;44.05;25.90;;;7.20;99.90;;;;;;4809047;29;20152;-84
2022/01/14 08:45:21;;;;;;;69.22;28.02;;;7.80;99.90;;;;;;4808364;29;20115;-84
2022/01/14 08:47:47;;;;;;;59.55;27.15;;;8.60;99.90;;;;;;4804632;29;20090;-84
2022/01/14 08:50:13;;;;;;;62.00;26.77;;;7.90;99.90;;;;;;4805118;29;20441;-83
2022/01/14 08:52:39;;;;;;;50.83;26.20;;;9.70;99.90;;;;;;4787691;29;20125;-84
2022/01/14 08:55:05;;;;;;;46.80;24.17;;;7.90;99.90;;;;;;4788401;29;20082;-84
2022/01/14 08:57:31;;;;;;;56.08;24.00;;;8.00;99.90;;;;;;4804522;29;20121;-84
2022/01/14 08:59:57;;;;;;;53.30;24.88;;;8.70;99.90;;;;;;4804877;29;20422;-84
2022/01/14 09:02:22;;;;;;;53.80;25.38;;;10.80;99.90;;;;;;4788284;29;20055;-83
2022/01/14 09:04:48;;;;;;;54.10;23.27;;;8.70;99.90;;;;;;4805235;29;20121;-83
2022/01/14 09:07:16;;;;;;;46.72;24.20;;;6.50;99.90;;;;;;4789141;29;20408;-83
2022/01/14 09:09:41;;;;;;;53.65;23.65;;;8.10;99.90;;;;;;4786373;30;20124;-83
2022/01/14 09:12:08;;;;;;;49.83;22.40;;;8.10;99.90;;;;;;4785803;30;20098;-83
2022/01/14 09:14:34;;;;;;;39.47;20.83;;;8.20;99.90;;;;;;4791980;29;20066;-83
2022/01/14 09:17:00;;;;;;;52.60;22.23;;;8.20;99.90;;;;;;4819039;29;20051;-83
2022/01/14 09:19:26;;;;;;;52.83;22.13;;;8.70;99.90;;;;;;4807590;29;20059;-83
2022/01/14 09:21:51;;;;;;;44.92;21.60;;;8.30;99.90;;;;;;4803804;29;20062;-83
2022/01/14 09:24:17;;;;;;;47.53;21.13;;;8.60;99.90;;;;;;4788096;29;20097;-83
2022/01/14 09:26:43;;;;;;;45.47;20.85;;;;;;;;;;4804838;29;20054;-83
2022/01/14 09:29:09;;;;;;;42.38;20.52;;;8.40;99.90;;;;;;4772337;29;20214;-83
2022/01/14 09:31:35;;;;;;;44.08;20.58;;;8.40;99.90;;;;;;4804173;29;20520;-83
2022/01/14 09:34:01;;;;;;;54.15;19.52;;;8.30;99.90;;;;;;4803976;29;20058;-83
2022/01/14 09:36:29;;;;;;;36.05;17.88;;;9.00;99.90;;;;;;4790105;29;20066;-83
2022/01/14 09:38:56;;;;;;;49.83;18.77;;;10.60;99.90;;;;;;4802894;29;20050;-85
2022/01/14 09:41:22;;;;;;;42.92;18.40;;;8.90;99.90;;;;;;4814731;29;20053;-83
2022/01/14 09:43:48;;;;;;;36.92;16.90;;;9.80;99.90;;;;;;4806654;29;20405;-83
2022/01/14 09:46:14;;;;;;;38.45;17.13;;;11.00;99.90;;;;;;4821887;29;20054;-84
2022/01/14 09:48:40;;;;;;;36.65;15.63;;;9.40;99.90;;;;;;4810158;29;20051;-83
2022/01/14 09:51:06;;;;;;;45.13;15.73;;;;;;;;;;4772452;29;20059;-84
2022/01/14 09:53:32;;;;;;;40.92;15.40;;;8.80;99.90;;;;;;4794128;29;20385;-83
2022/01/14 09:55:59;;;;;;;33.08;14.07;;;8.80;99.90;;;;;;4804353;29;20089;-83
2022/01/14 09:58:27;;;;;;;27.67;13.93;;;8.80;99.90;;;;;;4811484;29;20416;-84
2022/01/14 10:01:11;;;;;;;34.95;13.70;;;9.30;99.90;;;;;;4802963;29;20051;-85
2022/01/14 10:03:57;;;;;;;32.70;12.15;;;11.10;99.90;;;;;;4809589;29;20054;-83
2022/01/14 10:06:38;;;;;;;32.53;11.75;;;9.00;99.90;;;;;;4815255;29;20065;-84
2022/01/14 10:09:27;;;;;;;32.83;13.40;;;9.00;99.90;;;;;;4787610;29;20066;-83
2022/01/14 10:12:05;;;;;;;29.95;12.05;;;9.00;99.90;;;;;;4790917;29;20508;-88
2022/01/14 10:14:33;;;;;;;29.75;11.82;;;9.10;99.90;;;;;;4813602;29;20058;-84
2022/01/14 10:17:01;;;;;;;27.50;11.10;;;9.10;99.90;;;;;;4771608;29;20137;-85
2022/01/14 10:19:34;;;;;;;32.20;10.95;;;9.00;99.90;;;;;;4803391;29;20194;-84
2022/01/14 10:22:00;;;;;;;27.40;10.25;;;9.20;99.90;;;;;;4797644;29;20050;-84
2022/01/14 10:24:29;;;;;;;23.63;9.18;;;9.20;99.90;;;;;;4821523;29;20060;-84
2022/01/14 10:27:05;;;;;;;28.60;9.88;;;9.30;99.90;;;;;;4812043;29;20051;-84
2022/01/14 10:29:38;;;;;;;22.23;8.57;;;9.20;99.90;;;;;;4794231;29;20474;-84
2022/01/14 10:32:06;;;;;;;24.58;8.55;;;11.10;99.90;;;;;;4772727;29;20051;-84
2022/01/14 10:34:33;;;;;;;19.17;8.02;;;9.40;99.90;;;;;;4787516;29;20150;-83
2022/01/14 10:37:16;;;;;;;23.40;7.73;;;9.40;99.90;;;;;;4802673;29;20059;-84
2022/01/14 10:39:44;;;;;;;24.02;7.53;;;9.50;99.90;;;;;;4786218;29;20058;-83
2022/01/14 10:42:39;;;;;;;27.83;8.18;;;9.50;99.90;;;;;;4803423;29;20463;-83
2022/01/14 10:45:23;;;;;;;19.73;8.10;;;9.50;99.90;;;;;;4790337;29;20058;-84
2022/01/14 10:47:52;;;;;;;23.17;8.50;;;10.20;99.90;;;;;;4803492;29;20054;-83
2022/01/14 10:50:18;;;;;;;18.83;7.80;;;9.50;99.90;;;;;;4781557;29;20063;-84
2022/01/14 10:52:49;;;;;;;29.20;8.88;;;10.30;99.90;;;;;;4786443;29;20055;-84
2022/01/14 10:55:31;;;;;;;34.15;8.80;;;9.40;99.90;;;;;;4802712;29;20222;-83
2022/01/14 10:57:57;;;;;;;27.08;9.02;;;11.70;99.90;;;;;;4802697;29;20057;-89
2022/01/14 11:00:25;;;;;;;22.92;8.70;;;9.50;99.90;;;;;;4802821;29;20496;-83
2022/01/14 11:02:53;;;;;;;26.45;8.43;;;9.40;99.90;;;;;;4788580;29;20043;-84
2022/01/14 11:05:19;;;;;;;;;;;9.40;99.90;;;;;;4809250;29;20357;-83
2022/01/14 11:07:49;;;;;;;21.48;8.02;;;9.30;99.90;;;;;;4821474;29;19925;-83
2022/01/14 11:10:26;;;;;;;27.35;7.63;;;9.40;99.90;;;;;;4809750;29;20332;-84
2022/01/14 11:12:54;;;;;;;29.08;8.07;;;9.30;99.90;;;;;;4815916;29;20070;-83
2022/01/14 11:15:21;;;;;;;26.02;6.65;;;9.30;99.90;;;;;;4815571;29;20058;-83
2022/01/14 11:17:51;;;;;;;27.70;7.22;;;10.50;99.90;;;;;;4821515;29;20069;-83
2022/01/14 11:20:34;;;;;;;25.33;7.10;;;9.30;99.90;;;;;;4814717;29;20175;-83
2022/01/14 11:23:14;;;;;;;24.23;7.13;;;9.40;99.90;;;;;;4796630;29;20046;-83
2022/01/14 11:25:54;;;;;;;26.00;8.70;;;9.40;99.90;;;;;;4817915;29;20131;-83
2022/01/14 11:28:27;;;;;;;27.52;10.18;;;10.30;99.90;;;;;;4801994;29;20149;-83
2022/01/14 11:30:53;;;;;;;42.10;15.43;;;9.30;99.90;;;;;;4805188;29;20074;-84
2022/01/14 11:33:19;;;;;;;66.82;25.25;;;7.90;99.90;;;;;;4782871;29;20043;-85
2022/01/14 11:35:56;;;;;;;42.72;16.98;;;9.40;99.90;;;;;;4800569;29;20078;-84
2022/01/14 11:38:42;;;;;;;37.67;13.68;;;9.40;99.90;;;;;;4786169;29;20145;-84
2022/01/14 11:41:10;;;;;;;26.48;7.65;;;9.20;99.90;;;;;;4802255;29;20055;-83
2022/01/14 11:43:46;;;;;;;28.30;9.32;;;9.40;99.90;;;;;;4803309;29;20079;-84
2022/01/14 11:46:16;;;;;;;26.48;7.40;;;9.20;99.90;;;;;;4802714;29;20051;-84
2022/01/14 11:48:49;;;;;;;26.45;7.00;;;9.40;99.90;;;;;;4793270;29;20095;-84
2022/01/14 11:51:18;;;;;;;25.55;7.35;;;9.40;99.90;;;;;;4790724;29;20080;-82
2022/01/14 11:53:52;;;;;;;21.80;7.47;;;9.40;99.90;;;;;;4824679;29;20119;-83
2022/01/14 11:56:31;;;;;;;22.60;6.28;;;9.40;99.90;;;;;;4823370;29;20058;-83
2022/01/14 11:59:18;;;;;;;27.08;7.53;;;9.50;99.90;;;;;;4815364;29;20142;-84
2022/01/14 12:01:52;;;;;;;19.30;5.70;;;9.50;99.90;;;;;;4816903;29;20054;-83
2022/01/14 12:04:19;;;;;;;28.75;7.05;;;9.60;99.90;;;;;;4807431;29;20058;-83
2022/01/14 12:06:51;;;;;;;20.80;6.93;;;9.50;99.90;;;;;;4788318;29;20493;-89
2022/01/14 12:09:18;;;;;;;20.00;5.60;;;9.60;99.90;;;;;;4803876;29;20055;-83
2022/01/14 12:11:44;;;;;;;24.07;6.93;;;9.50;99.90;;;;;;4801919;29;20069;-85
2022/01/14 12:14:11;;;;;;;17.02;6.00;;;9.60;99.90;;;;;;4798057;29;20398;-84
2022/01/14 12:16:48;;;;;;;23.15;6.63;;;9.60;99.90;;;;;;4792418;29;20133;-84
2022/01/14 12:19:17;;;;;;;21.50;5.53;;;11.80;99.90;;;;;;4789231;29;20058;-83
2022/01/14 12:21:49;;;;;;;19.55;6.05;;;9.50;99.90;;;;;;4805142;29;20585;-87
2022/01/14 12:24:15;;;;;;;29.85;6.10;;;;;;;;;;4811267;29;20141;-84
2022/01/14 12:27:11;;;;;;;22.98;5.85;;;9.50;99.90;;;;;;4810295;29;20086;-85
2022/01/14 12:29:37;;;;;;;23.77;6.70;;;9.50;99.90;;;;;;4805426;29;20054;-83
2022/01/14 12:32:17;;;;;;;21.08;6.25;;;9.50;99.90;;;;;;4805028;29;20054;-83
2022/01/14 12:34:55;;;;;;;22.40;6.15;;;9.50;99.90;;;;;;4805772;29;20075;-84
2022/01/14 12:37:32;;;;;;;18.65;5.57;;;10.70;99.90;;;;;;4805695;29;20059;-83
2022/01/14 12:40:07;;;;;;;16.58;5.95;;;9.60;99.90;;;;;;4805230;29;20089;-84
2022/01/14 12:42:32;;;;;;;23.75;6.22;;;8.00;99.90;;;;;;4788738;29;20083;-84
2022/01/14 12:45:00;;;;;;;33.60;6.90;;;10.80;99.90;;;;;;4810980;29;20433;-85
2022/01/14 12:47:34;;;;;;;23.70;6.45;;;11.70;99.90;;;;;;4805974;29;20126;-84
2022/01/14 12:50:17;;;;;;;25.40;6.03;;;9.60;99.90;;;;;;4805925;29;20450;-83
2022/01/14 12:52:50;;;;;;;26.55;7.30;;;9.60;99.90;;;;;;4804928;29;20487;-84
2022/01/14 12:55:17;;;;;;;21.13;6.10;;;9.60;99.90;;;;;;4797122;29;20145;-84
2022/01/14 12:57:43;;;;;;;23.15;7.03;;;10.60;99.90;;;;;;4818049;29;20070;-84
2022/01/14 13:00:11;;;;;;;23.77;6.80;;;9.60;99.90;;;;;;4814706;29;20508;-88
2022/01/14 13:02:38;;;;;;;23.48;6.82;;;9.40;99.90;;;;;;4811616;29;20059;-86
2022/01/14 13:05:19;;;;;;;20.03;6.00;;;9.50;99.90;;;;;;4804261;29;20522;-85
2022/01/14 13:07:46;;;;;;;26.95;6.72;;;9.50;99.90;;;;;;4805827;29;20315;-84
2022/01/14 13:10:14;;;;;;;25.73;7.22;;;7.90;99.90;;;;;;4803713;29;20089;-84